createdAt,value
2022-08-21T00:00:28.922Z,97520.44
2022-08-21T00:03:30.994Z,97514.38
2022-08-21T00:06:34.940Z,97517.84
2022-08-21T00:09:38.470Z,97518.00
2022-08-21T00:12:44.155Z,97515.19
2022-08-21T00:15:49.382Z,97518.22
2022-08-21T00:18:51.425Z,97512.97
2022-08-21T00:21:54.999Z,97514.47
2022-08-21T00:24:57.000Z,97509.88
2022-08-21T00:27:58.928Z,97507.06
2022-08-21T00:31:01.179Z,97509.59
2022-08-21T00:34:03.899Z,97508.84
2022-08-21T00:37:08.074Z,97509.22
2022-08-21T00:40:16.860Z,97489.75
2022-08-21T00:43:22.467Z,97483.22
2022-08-21T00:46:28.417Z,97482.25
2022-08-21T00:49:30.389Z,97471.69
2022-08-21T00:52:34.257Z,97482.31
2022-08-21T00:55:38.065Z,97472.19
2022-08-21T00:58:43.285Z,97469.72
2022-08-21T01:01:46.082Z,97463.97
2022-08-21T01:04:51.987Z,97469.28
2022-08-21T01:07:54.825Z,97473.38
2022-08-21T01:10:57.665Z,97473.72
2022-08-21T01:14:03.112Z,97469.97
2022-08-21T01:17:05.878Z,97475.69
2022-08-21T01:20:10.462Z,97477.00
2022-08-21T01:23:15.720Z,97462.66
2022-08-21T01:26:21.204Z,97462.03
2022-08-21T01:29:44.688Z,97449.94
2022-08-21T01:32:47.234Z,97451.84
2022-08-21T01:35:49.569Z,97442.09
2022-08-21T01:38:51.681Z,97437.22
2022-08-21T01:41:53.965Z,97434.38
2022-08-21T01:44:56.223Z,97436.78
2022-08-21T01:47:58.216Z,97439.09
2022-08-21T01:51:00.736Z,97432.09
2022-08-21T01:54:02.744Z,97427.44
2022-08-21T01:57:05.615Z,97436.59
2022-08-21T02:00:12.013Z,97433.78
2022-08-21T02:03:26.281Z,97430.22
2022-08-21T02:06:38.428Z,97411.81
2022-08-21T02:09:47.641Z,97416.75
2022-08-21T02:12:51.185Z,97417.56
2022-08-21T02:15:53.177Z,97421.50
2022-08-21T02:18:55.356Z,97410.16
2022-08-21T02:21:59.931Z,97415.97
2022-08-21T02:25:02.787Z,97411.31
2022-08-21T02:28:08.750Z,97407.97
2022-08-21T02:31:11.663Z,97416.78
2022-08-21T02:34:13.701Z,97418.13
2022-08-21T02:37:15.780Z,97413.22
2022-08-21T02:40:19.355Z,97423.19
2022-08-21T02:43:23.097Z,97417.41
2022-08-21T02:46:25.215Z,97414.44
2022-08-21T02:49:27.091Z,97419.31
2022-08-21T02:52:28.967Z,97420.13
2022-08-21T02:55:35.097Z,97418.06
2022-08-21T02:58:44.300Z,97425.97
2022-08-21T03:01:46.918Z,97428.19
2022-08-21T03:04:49.234Z,97427.38
2022-08-21T03:07:51.300Z,97414.06
2022-08-21T03:10:54.214Z,97415.31
2022-08-21T03:13:58.261Z,97424.34
2022-08-21T03:17:00.167Z,97412.22
2022-08-21T03:20:05.550Z,97407.03
2022-08-21T03:23:13.277Z,97414.34
2022-08-21T03:26:18.983Z,97411.91
2022-08-21T03:29:21.647Z,97421.38
2022-08-21T03:32:23.693Z,97419.81
2022-08-21T03:35:26.264Z,97426.84
2022-08-21T03:38:33.180Z,97426.16
2022-08-21T03:41:35.376Z,97427.56
2022-08-21T03:44:37.624Z,97428.00
2022-08-21T03:47:39.763Z,97426.38
2022-08-21T03:50:45.219Z,97427.69
2022-08-21T03:53:47.096Z,97423.63
2022-08-21T03:56:52.246Z,97424.69
2022-08-21T03:59:54.071Z,97422.03
2022-08-21T04:02:57.661Z,97434.38
2022-08-21T04:06:02.610Z,97440.13
2022-08-21T04:09:04.803Z,97449.69
2022-08-21T04:12:07.353Z,97443.31
2022-08-21T04:15:09.709Z,97452.09
2022-08-21T04:18:14.360Z,97447.06
2022-08-21T04:21:16.201Z,97447.44
2022-08-21T04:24:21.196Z,97453.63
2022-08-21T04:27:23.527Z,97459.34
2022-08-21T04:30:28.312Z,97455.19
2022-08-21T04:33:33.241Z,97459.06
2022-08-21T04:36:37.888Z,97456.84
2022-08-21T04:39:39.865Z,97465.91
2022-08-21T04:42:45.611Z,97462.59
2022-08-21T04:45:50.393Z,97464.88
2022-08-21T04:48:52.725Z,97460.00
2022-08-21T04:52:00.719Z,97469.38
2022-08-21T04:55:03.521Z,97467.75
2022-08-21T04:58:10.773Z,97476.53
2022-08-21T05:01:17.319Z,97474.97
2022-08-21T05:04:21.872Z,97472.53
2022-08-21T05:07:42.637Z,97472.16
2022-08-21T05:10:47.603Z,97471.25
2022-08-21T05:13:56.335Z,97475.53
2022-08-21T05:16:59.933Z,97471.06
2022-08-21T05:20:03.686Z,97479.66
2022-08-21T05:23:14.829Z,97470.22
2022-08-21T05:26:18.390Z,97475.03
2022-08-21T05:29:21.736Z,97472.44
2022-08-21T05:32:25.155Z,97469.50
2022-08-21T05:35:29.075Z,97477.16
2022-08-21T05:38:31.114Z,97479.22
2022-08-21T05:41:34.311Z,97480.09
2022-08-21T05:44:36.764Z,97479.44
2022-08-21T05:47:38.957Z,97491.72
2022-08-21T05:50:44.300Z,97492.19
2022-08-21T05:53:47.087Z,97496.66
2022-08-21T05:56:57.234Z,97492.53
2022-08-21T05:59:59.621Z,97500.94
2022-08-21T06:03:02.424Z,97506.22
2022-08-21T06:06:05.012Z,97501.31
2022-08-21T06:09:08.467Z,97503.97
2022-08-21T06:12:12.872Z,97495.28
2022-08-21T06:15:16.319Z,97496.09
2022-08-21T06:18:18.631Z,97501.91
2022-08-21T06:21:22.937Z,97497.63
2022-08-21T06:24:25.140Z,97504.25
2022-08-21T06:27:28.554Z,97507.56
2022-08-21T06:30:37.418Z,97500.41
2022-08-21T06:33:40.595Z,97501.41
2022-08-21T06:36:43.057Z,97504.44
2022-08-21T06:39:48.141Z,97503.53
2022-08-21T06:42:51.974Z,97504.69
2022-08-21T06:45:54.914Z,97506.84
2022-08-21T06:48:57.912Z,97513.09
2022-08-21T06:52:01.165Z,97515.47
2022-08-21T06:55:06.262Z,97517.66
2022-08-21T06:58:08.983Z,97519.59
2022-08-21T07:01:11.538Z,97520.50
2022-08-21T07:04:13.857Z,97517.56
2022-08-21T07:07:16.373Z,97520.09
2022-08-21T07:10:22.196Z,97527.59
2022-08-21T07:13:25.114Z,97524.06
2022-08-21T07:16:26.989Z,97523.88
2022-08-21T07:19:29.060Z,97527.19
2022-08-21T07:22:31.504Z,97538.69
2022-08-21T07:25:35.152Z,97522.25
2022-08-21T07:28:40.219Z,97530.88
2022-08-21T07:31:42.876Z,97525.63
2022-08-21T07:34:47.752Z,97525.44
2022-08-21T07:37:56.159Z,97526.88
2022-08-21T07:41:00.266Z,97533.38
2022-08-21T07:44:03.795Z,97526.44
2022-08-21T07:47:05.933Z,97538.31
2022-08-21T07:50:09.236Z,97540.81
2022-08-21T07:53:19.692Z,97534.47
2022-08-21T07:56:22.032Z,97531.09
2022-08-21T07:59:24.187Z,97536.66
2022-08-21T08:02:30.201Z,97536.06
2022-08-21T08:05:33.501Z,97532.44
2022-08-21T08:08:35.724Z,97531.78
2022-08-21T08:11:40.432Z,97531.44
2022-08-21T08:14:43.038Z,97531.84
2022-08-21T08:17:45.400Z,97532.66
2022-08-21T08:20:50.996Z,97517.50
2022-08-21T08:23:53.615Z,97517.22
2022-08-21T08:26:59.116Z,97519.75
2022-08-21T08:30:01.249Z,97519.16
2022-08-21T08:33:03.926Z,97520.34
2022-08-21T08:36:08.015Z,97520.50
2022-08-21T08:39:10.880Z,97527.69
2022-08-21T08:42:33.410Z,97519.06
2022-08-21T08:45:39.549Z,97526.38
2022-08-21T08:48:52.848Z,97525.59
2022-08-21T08:52:01.340Z,97516.69
2022-08-21T08:55:16.105Z,97516.22
2022-08-21T08:58:24.950Z,97513.50
2022-08-21T09:01:27.453Z,97507.34
2022-08-21T09:04:32.610Z,97506.47
2022-08-21T09:07:52.562Z,97507.06
2022-08-21T09:11:15.570Z,97500.28
2022-08-21T09:14:34.709Z,97495.59
2022-08-21T09:18:15.963Z,97492.88
2022-08-21T09:21:24.743Z,97492.72
2022-08-21T09:24:49.934Z,97476.88
2022-08-21T09:27:54.219Z,97468.59
2022-08-21T09:30:59.541Z,97464.06
2022-08-21T09:34:04.774Z,97451.88
2022-08-21T09:37:18.880Z,97446.63
2022-08-21T09:40:33.647Z,97458.09
2022-08-21T09:43:36.367Z,97461.56
2022-08-21T09:46:38.750Z,97468.22
2022-08-21T09:49:43.216Z,97473.88
2022-08-21T09:52:52.515Z,97471.38
2022-08-21T09:56:15.977Z,97479.78
2022-08-21T09:59:20.732Z,97472.00
2022-08-21T10:02:28.754Z,97467.53
2022-08-21T10:05:31.366Z,97480.59
2022-08-21T10:08:36.221Z,97471.59
2022-08-21T10:11:38.816Z,97474.41
2022-08-21T10:15:00.175Z,97482.47
2022-08-21T10:18:14.696Z,97476.44
2022-08-21T10:21:31.169Z,97469.06
2022-08-21T10:24:35.990Z,97469.88
2022-08-21T10:28:03.287Z,97467.00
2022-08-21T10:31:26.630Z,97465.56
2022-08-21T10:34:41.222Z,97461.31
2022-08-21T10:37:46.508Z,97462.00
2022-08-21T10:40:52.087Z,97457.25
2022-08-21T10:44:03.736Z,97460.41
2022-08-21T10:47:35.875Z,97463.81
2022-08-21T10:50:44.316Z,97473.03
2022-08-21T10:54:11.547Z,97481.28
2022-08-21T10:57:24.105Z,97469.25
2022-08-21T11:00:41.363Z,97480.34
2022-08-21T11:03:47.315Z,97490.72
2022-08-21T11:06:58.879Z,97497.78
2022-08-21T11:10:08.621Z,97495.34
2022-08-21T11:13:21.814Z,97500.50
2022-08-21T11:16:48.191Z,97497.91
2022-08-21T11:19:55.028Z,97499.75
2022-08-21T11:23:18.492Z,97506.09
2022-08-21T11:26:29.871Z,97502.56
2022-08-21T11:29:37.154Z,97501.38
2022-08-21T11:33:08.208Z,97503.00
2022-08-21T11:36:20.467Z,97499.63
2022-08-21T11:40:00.603Z,97494.84
2022-08-21T11:43:09.661Z,97505.00
2022-08-21T11:46:36.597Z,97497.09
2022-08-21T11:50:05.227Z,97490.09
2022-08-21T11:53:55.633Z,97497.56
2022-08-21T11:57:07.629Z,97494.66
2022-08-21T12:00:19.711Z,97499.06
2022-08-21T12:03:24.832Z,97489.19
2022-08-21T12:06:42.300Z,97499.53
2022-08-21T12:09:57.424Z,97491.78
2022-08-21T12:13:09.750Z,97496.97
2022-08-21T12:16:14.657Z,97499.63
2022-08-21T12:19:26.132Z,97493.13
2022-08-21T12:22:42.493Z,97501.34
2022-08-21T12:25:49.517Z,97500.34
2022-08-21T12:28:52.322Z,97488.72
2022-08-21T12:32:03.382Z,97486.53
2022-08-21T12:35:23.188Z,97490.81
2022-08-21T12:38:35.007Z,97490.69
2022-08-21T12:41:50.732Z,97490.44
2022-08-21T12:45:05.178Z,97490.66
2022-08-21T12:48:09.969Z,97486.75
2022-08-21T12:51:20.495Z,97490.59
2022-08-21T12:54:31.874Z,97483.25
2022-08-21T12:57:40.673Z,97488.50
2022-08-21T13:00:51.566Z,97484.63
2022-08-21T13:04:04.105Z,97488.34
2022-08-21T13:07:12.850Z,97494.34
2022-08-21T13:10:28.231Z,97492.22
2022-08-21T13:13:31.689Z,97500.50
2022-08-21T13:16:35.704Z,97491.59
2022-08-21T13:19:39.182Z,97488.78
2022-08-21T13:22:43.844Z,97492.50
2022-08-21T13:25:46.201Z,97487.53
2022-08-21T13:28:51.116Z,97494.91
2022-08-21T13:31:55.995Z,97495.50
2022-08-21T13:34:59.166Z,97495.66
2022-08-21T13:38:03.118Z,97493.97
2022-08-21T13:41:08.397Z,97504.97
2022-08-21T13:44:20.625Z,97503.53
2022-08-21T13:47:23.374Z,97490.34
2022-08-21T13:50:27.845Z,97505.38
2022-08-21T13:53:37.945Z,97496.53
2022-08-21T13:56:46.154Z,97498.19
2022-08-21T13:59:50.039Z,97485.25
2022-08-21T14:02:55.953Z,97494.56
2022-08-21T14:06:00.333Z,97489.78
2022-08-21T14:09:11.084Z,97490.41
2022-08-21T14:12:48.179Z,97495.41
2022-08-21T14:16:00.586Z,97508.41
2022-08-21T14:19:03.963Z,97503.97
2022-08-21T14:22:25.387Z,97503.63
2022-08-21T14:25:31.970Z,97500.28
2022-08-21T14:28:43.431Z,97503.91
2022-08-21T14:31:57.373Z,97506.41
2022-08-21T14:34:59.500Z,97512.34
2022-08-21T14:38:02.197Z,97514.47
2022-08-21T14:41:34.267Z,97506.34
2022-08-21T14:44:37.711Z,97512.91
2022-08-21T14:47:39.820Z,97521.47
2022-08-21T14:50:42.445Z,97526.44
2022-08-21T14:53:45.032Z,97521.09
2022-08-21T14:56:47.956Z,97528.50
2022-08-21T14:59:50.668Z,97527.50
2022-08-21T15:02:53.414Z,97534.66
2022-08-21T15:05:56.053Z,97536.19
2022-08-21T15:08:58.242Z,97533.75
2022-08-21T15:12:02.898Z,97537.91
2022-08-21T15:15:09.242Z,97537.16
2022-08-21T15:18:12.854Z,97536.97
2022-08-21T15:21:15.516Z,97530.25
2022-08-21T15:24:23.793Z,97531.13
2022-08-21T15:27:28.354Z,97527.03
2022-08-21T15:30:31.361Z,97526.25
2022-08-21T15:33:33.828Z,97533.22
2022-08-21T15:36:36.450Z,97525.94
2022-08-21T15:39:41.357Z,97523.09
2022-08-21T15:42:45.193Z,97524.91
2022-08-21T15:45:47.179Z,97521.66
2022-08-21T15:48:49.975Z,97524.28
2022-08-21T15:51:52.210Z,97523.88
2022-08-21T15:54:54.370Z,97517.97
2022-08-21T15:57:59.941Z,97514.91
2022-08-21T16:01:04.952Z,97528.81
2022-08-21T16:04:07.521Z,97526.53
2022-08-21T16:07:12.443Z,97523.69
2022-08-21T16:10:18.512Z,97525.56
2022-08-21T16:13:30.444Z,97537.41
2022-08-21T16:16:35.669Z,97528.84
2022-08-21T16:19:41.421Z,97533.75
2022-08-21T16:22:45.027Z,97526.41
2022-08-21T16:25:48.061Z,97527.22
2022-08-21T16:28:52.409Z,97527.22
2022-08-21T16:31:55.276Z,97524.75
2022-08-21T16:34:57.867Z,97533.75
2022-08-21T16:38:00.329Z,97543.13
2022-08-21T16:41:03.165Z,97537.84
2022-08-21T16:44:09.800Z,97548.44
2022-08-21T16:47:26.780Z,97541.91
2022-08-21T16:50:30.017Z,97544.56
2022-08-21T16:53:32.051Z,97545.78
2022-08-21T16:56:36.588Z,97546.59
2022-08-21T16:59:42.234Z,97545.97
2022-08-21T17:02:47.754Z,97552.31
2022-08-21T17:05:50.826Z,97544.34
2022-08-21T17:08:53.999Z,97545.97
2022-08-21T17:11:59.150Z,97538.84
2022-08-21T17:15:08.726Z,97531.91
2022-08-21T17:18:15.398Z,97531.09
2022-08-21T17:21:18.732Z,97527.63
2022-08-21T17:24:21.404Z,97522.50
2022-08-21T17:27:26.867Z,97530.88
2022-08-21T17:30:29.494Z,97534.56
2022-08-21T17:33:35.045Z,97527.22
2022-08-21T17:36:37.637Z,97533.75
2022-08-21T17:39:40.069Z,97546.59
2022-08-21T17:42:44.162Z,97539.66
2022-08-21T17:45:47.080Z,97545.56
2022-08-21T17:48:50.241Z,97548.44
2022-08-21T17:51:52.686Z,97541.88
2022-08-21T17:54:55.201Z,97548.75
2022-08-21T17:57:59.113Z,97547.97
2022-08-21T18:01:06.608Z,97550.19
2022-08-21T18:04:10.895Z,97545.69
2022-08-21T18:07:25.116Z,97543.84
2022-08-21T18:10:35.050Z,97554.22
2022-08-21T18:13:40.159Z,97552.78
2022-08-21T18:16:43.201Z,97551.53
2022-08-21T18:19:48.939Z,97559.31
2022-08-21T18:22:51.927Z,97567.47
2022-08-21T18:25:56.980Z,97576.88
2022-08-21T18:29:00.720Z,97578.09
2022-08-21T18:32:05.136Z,97575.66
2022-08-21T18:35:27.560Z,97586.66
2022-08-21T18:38:31.394Z,97586.25
2022-08-21T18:41:34.455Z,97575.03
2022-08-21T18:44:38.293Z,97578.84
2022-08-21T18:47:47.506Z,97581.31
2022-08-21T18:50:51.319Z,97576.59
2022-08-21T18:53:56.231Z,97573.97
2022-08-21T18:56:58.390Z,97576.47
2022-08-21T19:00:04.341Z,97566.00
2022-08-21T19:03:10.448Z,97560.91
2022-08-21T19:06:20.162Z,97549.91
2022-08-21T19:09:22.920Z,97552.78
2022-08-21T19:12:29.648Z,97555.75
2022-08-21T19:15:35.311Z,97563.34
2022-08-21T19:18:41.376Z,97565.44
2022-08-21T19:21:45.146Z,97567.50
2022-08-21T19:24:52.492Z,97556.03
2022-08-21T19:27:54.740Z,97562.19
2022-08-21T19:31:23.557Z,97565.13
2022-08-21T19:34:27.587Z,97568.63
2022-08-21T19:37:29.876Z,97575.66
2022-08-21T19:40:32.466Z,97581.38
2022-08-21T19:43:41.102Z,97587.66
2022-08-21T19:46:45.061Z,97590.75
2022-08-21T19:49:53.962Z,97595.28
2022-08-21T19:52:58.026Z,97589.81
2022-08-21T19:56:03.217Z,97590.78
2022-08-21T20:02:28.679Z,97573.75
2022-08-21T20:05:39.565Z,97576.16
2022-08-21T20:08:43.227Z,97574.91
2022-08-21T20:11:52.910Z,97565.34
2022-08-21T20:14:56.687Z,97564.66
2022-08-21T20:17:59.210Z,97557.97
2022-08-21T20:21:02.180Z,97548.19
2022-08-21T20:24:07.645Z,97553.47
2022-08-21T20:27:15.273Z,97550.47
2022-08-21T20:33:42.785Z,97552.31
2022-08-21T20:36:44.748Z,97540.47
2022-08-21T20:39:51.203Z,97549.44
2022-08-21T20:42:55.098Z,97548.22
2022-08-21T20:45:58.009Z,97555.00
2022-08-21T20:49:00.595Z,97547.44
2022-08-21T20:52:04.822Z,97551.50
2022-08-21T20:55:10.921Z,97547.59
2022-08-21T21:01:49.084Z,97560.47
2022-08-21T21:05:35.324Z,97565.81
2022-08-21T21:08:51.054Z,97568.56
2022-08-21T21:11:56.765Z,97580.66
2022-08-21T21:15:05.342Z,97573.09
2022-08-21T21:18:14.423Z,97567.34
2022-08-21T21:21:35.452Z,97562.72
2022-08-21T21:24:48.820Z,97560.22
2022-08-21T21:28:04.287Z,97561.25
2022-08-21T21:31:06.919Z,97566.28
2022-08-21T21:34:16.988Z,97565.69
2022-08-21T21:37:29.959Z,97554.06
2022-08-21T21:40:39.039Z,97552.91
2022-08-21T21:43:54.117Z,97550.88
2022-08-21T21:47:12.402Z,97550.25
2022-08-21T21:50:42.870Z,97549.44
2022-08-21T21:54:22.453Z,97554.38
2022-08-21T21:57:44.216Z,97560.06
2022-08-21T22:01:00.801Z,97553.53
2022-08-21T22:04:11.949Z,97548.91
2022-08-21T22:07:35.951Z,97547.47
2022-08-21T22:10:43.281Z,97542.34
2022-08-21T22:13:57.549Z,97543.34
2022-08-21T22:17:18.051Z,97547.78
2022-08-21T22:20:53.147Z,97540.88
2022-08-21T22:23:59.036Z,97538.06
2022-08-21T22:27:07.810Z,97540.91
2022-08-21T22:30:16.135Z,97538.63
2022-08-21T22:33:30.014Z,97538.00
2022-08-21T22:36:36.670Z,97541.28
2022-08-21T22:39:45.372Z,97539.44
2022-08-21T22:43:07.185Z,97540.84
2022-08-21T22:46:12.200Z,97529.47
2022-08-21T22:49:33.286Z,97516.84
2022-08-21T22:52:37.436Z,97514.78
2022-08-21T22:55:44.101Z,97509.88
2022-08-21T22:58:56.683Z,97502.38
2022-08-21T23:02:08.245Z,97502.75
2022-08-21T23:05:41.089Z,97510.84
2022-08-21T23:08:44.128Z,97502.13
2022-08-21T23:11:50.951Z,97512.28
2022-08-21T23:14:54.983Z,97493.38
2022-08-21T23:18:27.959Z,97493.56
2022-08-21T23:21:56.423Z,97481.34
2022-08-21T23:25:15.589Z,97479.50
2022-08-21T23:28:22.467Z,97481.94
2022-08-21T23:31:29.553Z,97481.75
2022-08-21T23:34:48.988Z,97482.16
2022-08-21T23:37:54.617Z,97474.97
2022-08-21T23:41:11.128Z,97483.34
2022-08-21T23:44:26.578Z,97479.03
2022-08-21T23:47:56.707Z,97480.91
2022-08-21T23:51:02.965Z,97493.13
2022-08-21T23:54:11.296Z,97479.28
2022-08-21T23:57:19.723Z,97492.38
